Poplarville, Mississippi
Current Conditions -  °F | °C
As of 12:53 PM on Friday 21 Nov 2014 (Local Time) from KHBG Reporting Station
Clear Clear  
Wind Chill: 70°   Ceiling: Unl
Heat Index: 70°   Visibility: 10mi
Dew Point: 43°   Wind: 13mph
Humidity: 38%   Direction: 110°ESE
Pressure: 30.29"   Gusts: NA
Location:  30.84°N, 89.53°W
Report Text: KHBG 211853Z AUTO 11011KT 10SM CLR 21/06 A3029 RMK AO2 SLP255 T02110061
Loading
Personal Weather Stations






























Interactive Weather Map New forecast layout! Learn more

10-Day Weather Forecast

Advertisements
Track Severe Weather on mobile